createdAt,value
2017-04-22T00:04:24.405Z,1017.10
2017-04-22T00:09:20.394Z,1017.05
2017-04-22T00:19:15.496Z,1017.05
2017-04-22T00:24:11.724Z,1016.99
2017-04-22T00:29:07.107Z,1016.93
2017-04-22T00:34:02.980Z,1016.94
2017-04-22T00:44:06.555Z,1016.97
2017-04-22T00:49:04.512Z,1017.19
2017-04-22T00:53:59.115Z,1017.14
2017-04-22T00:58:55.077Z,1017.22
2017-04-22T01:03:50.768Z,1017.27
2017-04-22T01:08:46.145Z,1017.25
2017-04-22T01:13:42.207Z,1017.06
2017-04-22T01:18:40.402Z,1017.05
2017-04-22T01:23:36.006Z,1017.12
2017-04-22T01:28:32.149Z,1017.08
2017-04-22T01:33:27.427Z,1017.23
2017-04-22T01:38:26.950Z,1017.15
2017-04-22T01:43:23.997Z,1017.00
2017-04-22T01:53:27.359Z,1017.09
2017-04-22T02:03:21.307Z,1017.09
2017-04-22T02:08:17.656Z,1017.15
2017-04-22T02:13:13.557Z,1017.18
2017-04-22T02:18:08.827Z,1017.15
2017-04-22T02:23:04.990Z,1017.10
2017-04-22T02:28:00.751Z,1017.02
2017-04-22T02:32:56.186Z,1017.01
2017-04-22T02:37:52.172Z,1016.97
2017-04-22T02:42:48.530Z,1016.94
2017-04-22T02:52:49.514Z,1016.94
2017-04-22T02:57:45.130Z,1016.96
2017-04-22T03:02:42.251Z,1016.97
2017-04-22T03:07:38.037Z,1016.83
2017-04-22T03:12:33.583Z,1016.94
2017-04-22T03:17:30.124Z,1016.85
2017-04-22T03:22:26.294Z,1016.91
2017-04-22T03:42:25.817Z,1016.94
2017-04-22T03:47:21.591Z,1017.02
2017-04-22T03:52:17.330Z,1016.89
2017-04-22T03:57:13.131Z,1016.85
2017-04-22T04:02:10.043Z,1016.80
2017-04-22T04:07:06.398Z,1016.80
2017-04-22T04:12:03.712Z,1016.91
2017-04-22T04:16:59.657Z,1016.82
2017-04-22T04:21:55.517Z,1016.84
2017-04-22T04:26:51.097Z,1016.94
2017-04-22T04:31:46.370Z,1016.99
2017-04-22T04:36:42.388Z,1017.03
2017-04-22T04:41:39.704Z,1016.99
2017-04-22T04:46:35.308Z,1017.08
2017-04-22T04:51:34.830Z,1017.12
2017-04-22T04:56:31.344Z,1017.16
2017-04-22T05:01:27.869Z,1017.28
2017-04-22T05:06:23.242Z,1017.25
2017-04-22T05:11:18.885Z,1017.33
2017-04-22T05:16:14.830Z,1017.41
2017-04-22T05:21:10.561Z,1017.44
2017-04-22T05:26:06.502Z,1017.56
2017-04-22T05:31:05.760Z,1017.53
2017-04-22T05:36:01.024Z,1017.46
2017-04-22T05:40:56.828Z,1017.46
2017-04-22T05:45:52.762Z,1017.52
2017-04-22T05:50:52.955Z,1017.66
2017-04-22T05:55:48.519Z,1017.67
2017-04-22T06:00:44.173Z,1017.59
2017-04-22T06:05:40.678Z,1017.69
2017-04-22T06:10:36.238Z,1017.70
2017-04-22T06:15:31.871Z,1017.75
2017-04-22T06:20:27.601Z,1017.73
2017-04-22T06:25:24.066Z,1017.82
2017-04-22T06:30:19.320Z,1017.76
2017-04-22T06:35:15.752Z,1017.84
2017-04-22T06:40:11.795Z,1017.76
2017-04-22T06:45:08.018Z,1017.80
2017-04-22T06:50:05.185Z,1017.87
2017-04-22T06:55:01.084Z,1017.81
2017-04-22T06:59:58.262Z,1017.88
2017-04-22T07:04:54.818Z,1017.90
2017-04-22T07:09:50.597Z,1017.85
2017-04-22T07:14:46.823Z,1017.81
2017-04-22T07:19:43.023Z,1017.83
2017-04-22T07:24:38.799Z,1017.77
2017-04-22T07:29:34.921Z,1017.80
2017-04-22T07:34:33.361Z,1017.77
2017-04-22T07:39:28.646Z,1017.78
2017-04-22T07:44:24.421Z,1017.65
2017-04-22T07:49:20.296Z,1017.67
2017-04-22T07:54:15.837Z,1017.77
2017-04-22T07:59:12.091Z,1017.76
2017-04-22T08:04:09.121Z,1017.72
2017-04-22T08:09:04.959Z,1017.83
2017-04-22T08:14:02.708Z,1017.95
2017-04-22T08:18:59.974Z,1017.79
2017-04-22T08:23:57.211Z,1017.78
2017-04-22T08:28:54.359Z,1017.95
2017-04-22T08:33:49.797Z,1017.76
2017-04-22T08:38:46.156Z,1017.89
2017-04-22T08:43:40.233Z,1017.85
2017-04-22T08:48:35.048Z,1017.70
2017-04-22T08:53:30.090Z,1017.79
2017-04-22T08:58:25.598Z,1017.72
2017-04-22T09:03:21.267Z,1017.71
2017-04-22T09:08:17.438Z,1017.58
2017-04-22T09:13:12.751Z,1017.63
2017-04-22T09:18:08.309Z,1017.64
2017-04-22T09:23:04.246Z,1017.63
2017-04-22T09:28:00.553Z,1017.66
2017-04-22T09:32:56.798Z,1017.60
2017-04-22T09:37:53.256Z,1017.65
2017-04-22T09:42:48.475Z,1017.75
2017-04-22T09:47:44.943Z,1017.69
2017-04-22T09:52:40.866Z,1017.67
2017-04-22T09:57:37.015Z,1017.70
2017-04-22T10:02:32.134Z,1017.80
2017-04-22T10:07:27.677Z,1017.73
2017-04-22T10:12:24.220Z,1017.59
2017-04-22T10:17:20.511Z,1017.88
2017-04-22T10:22:15.863Z,1017.84
2017-04-22T10:27:11.511Z,1017.84
2017-04-22T10:32:08.733Z,1018.18
2017-04-22T10:37:07.598Z,1017.80
2017-04-22T10:42:02.910Z,1017.97
2017-04-22T10:46:58.886Z,1017.91
2017-04-22T10:51:55.811Z,1017.91
2017-04-22T10:56:52.997Z,1017.91
2017-04-22T11:01:47.515Z,1018.02
2017-04-22T11:06:45.710Z,1017.82
2017-04-22T11:11:40.265Z,1017.70
2017-04-22T11:16:34.794Z,1017.77
2017-04-22T11:21:29.862Z,1017.81
2017-04-22T11:26:24.978Z,1017.71
2017-04-22T11:31:20.001Z,1017.70
2017-04-22T11:36:16.835Z,1017.75
2017-04-22T11:41:17.447Z,1017.63
2017-04-22T11:46:15.849Z,1017.47
2017-04-22T11:51:13.672Z,1017.28
2017-04-22T11:56:04.677Z,1017.29
2017-04-22T12:00:58.961Z,1017.30
2017-04-22T12:06:00.645Z,1017.29
2017-04-22T12:10:57.769Z,1017.16
2017-04-22T12:15:53.438Z,1017.08
2017-04-22T12:20:48.942Z,1017.16
2017-04-22T12:25:42.616Z,1017.19
2017-04-22T12:35:39.622Z,1017.17
2017-04-22T12:40:34.454Z,1017.12
2017-04-22T12:45:30.125Z,1017.26
2017-04-22T12:50:26.741Z,1017.36
2017-04-22T12:55:21.806Z,1017.21
2017-04-22T13:00:17.914Z,1017.16
2017-04-22T13:05:14.481Z,1017.19
2017-04-22T13:10:09.232Z,1016.95
2017-04-22T13:15:05.894Z,1016.97
2017-04-22T13:20:00.766Z,1017.01
2017-04-22T13:24:56.065Z,1016.98
2017-04-22T13:29:51.177Z,1017.01
2017-04-22T13:34:47.119Z,1017.00
2017-04-22T13:39:43.331Z,1017.01
2017-04-22T13:44:39.040Z,1017.02
2017-04-22T13:49:35.056Z,1016.92
2017-04-22T13:54:30.883Z,1016.86
2017-04-22T13:59:26.384Z,1016.88
2017-04-22T14:04:22.785Z,1016.82
2017-04-22T14:09:18.940Z,1016.92
2017-04-22T14:14:14.709Z,1016.86
2017-04-22T14:19:10.519Z,1016.84
2017-04-22T14:24:06.980Z,1016.77
2017-04-22T14:29:02.383Z,1016.77
2017-04-22T14:33:57.967Z,1016.74
2017-04-22T14:38:53.516Z,1016.62
2017-04-22T14:43:50.434Z,1016.56
2017-04-22T14:48:45.872Z,1016.54
2017-04-22T14:53:41.547Z,1016.49
2017-04-22T14:58:37.140Z,1016.62
2017-04-22T15:03:32.693Z,1016.48
2017-04-22T15:08:28.469Z,1016.63
2017-04-22T15:13:24.284Z,1016.64
2017-04-22T15:18:19.185Z,1016.58
2017-04-22T15:23:15.274Z,1016.61
2017-04-22T15:28:11.885Z,1016.66
2017-04-22T15:33:07.580Z,1016.65
2017-04-22T15:38:04.939Z,1016.60
2017-04-22T15:43:00.543Z,1016.61
2017-04-22T15:47:56.408Z,1016.54
2017-04-22T15:52:52.003Z,1016.50
2017-04-22T15:57:49.561Z,1016.48
2017-04-22T16:02:44.843Z,1016.58
2017-04-22T16:07:41.108Z,1016.45
2017-04-22T16:12:37.497Z,1016.48
2017-04-22T16:17:34.499Z,1016.48
2017-04-22T16:22:29.840Z,1016.53
2017-04-22T16:27:25.791Z,1016.46
2017-04-22T16:32:22.088Z,1016.57
2017-04-22T16:37:17.606Z,1016.46
2017-04-22T16:42:14.730Z,1016.49
2017-04-22T16:47:10.258Z,1016.56
2017-04-22T16:52:05.954Z,1016.46
2017-04-22T16:57:02.237Z,1016.44
2017-04-22T17:01:58.041Z,1016.46
2017-04-22T17:06:54.045Z,1016.47
2017-04-22T17:11:50.593Z,1016.55
2017-04-22T17:16:46.340Z,1016.45
2017-04-22T17:21:42.275Z,1016.45
2017-04-22T17:26:37.970Z,1016.54
2017-04-22T17:31:33.603Z,1016.44
2017-04-22T17:36:29.344Z,1016.51
2017-04-22T17:41:24.970Z,1016.44
2017-04-22T17:46:20.774Z,1016.42
2017-04-22T17:51:17.124Z,1016.68
2017-04-22T17:56:12.770Z,1016.52
2017-04-22T18:01:08.253Z,1016.53
2017-04-22T18:06:04.369Z,1016.57
2017-04-22T18:11:00.682Z,1016.51
2017-04-22T18:15:56.388Z,1016.62
2017-04-22T18:20:51.937Z,1016.54
2017-04-22T18:25:49.902Z,1016.67
2017-04-22T18:30:45.233Z,1016.74
2017-04-22T18:35:40.908Z,1016.77
2017-04-22T18:40:36.995Z,1016.80
2017-04-22T18:45:32.555Z,1016.86
2017-04-22T18:50:29.013Z,1016.77
2017-04-22T18:55:24.988Z,1016.88
2017-04-22T19:00:20.808Z,1016.89
2017-04-22T19:05:17.358Z,1016.86
2017-04-22T19:10:14.968Z,1016.94
2017-04-22T19:15:10.260Z,1017.07
2017-04-22T19:20:05.813Z,1016.93
2017-04-22T19:25:02.783Z,1016.99
2017-04-22T19:29:59.766Z,1017.04
2017-04-22T19:34:55.042Z,1017.15
2017-04-22T19:39:50.413Z,1017.18
2017-04-22T19:44:46.469Z,1017.20
2017-04-22T19:49:42.153Z,1017.17
2017-04-22T19:54:40.855Z,1017.18
2017-04-22T19:59:35.721Z,1017.30
2017-04-22T20:04:32.524Z,1017.28
2017-04-22T20:09:28.832Z,1017.25
2017-04-22T20:14:25.697Z,1017.32
2017-04-22T20:19:21.543Z,1017.22
2017-04-22T20:24:17.514Z,1017.26
2017-04-22T20:29:16.694Z,1017.30
2017-04-22T20:34:14.386Z,1017.38
2017-04-22T20:39:10.056Z,1017.33
2017-04-22T20:44:06.281Z,1017.41
2017-04-22T20:49:04.024Z,1017.48
2017-04-22T20:53:59.789Z,1017.60
2017-04-22T20:58:55.565Z,1017.64
2017-04-22T21:03:54.236Z,1017.57
2017-04-22T21:08:49.350Z,1017.63
2017-04-22T21:13:44.882Z,1017.57
2017-04-22T21:18:41.088Z,1017.55
2017-04-22T21:23:37.187Z,1017.59
2017-04-22T21:28:32.600Z,1017.53
2017-04-22T21:33:34.599Z,1017.52
2017-04-22T21:38:28.990Z,1017.39
2017-04-22T21:43:24.835Z,1017.37
2017-04-22T21:48:20.435Z,1017.42
2017-04-22T21:53:16.859Z,1017.34
2017-04-22T21:58:12.829Z,1017.41
2017-04-22T22:03:08.349Z,1017.38
2017-04-22T22:08:04.137Z,1017.33
2017-04-22T22:13:01.445Z,1017.37
2017-04-22T22:18:00.661Z,1017.36
2017-04-22T22:22:56.501Z,1017.37
2017-04-22T22:27:52.406Z,1017.36
2017-04-22T22:32:48.941Z,1017.34
2017-04-22T22:37:48.072Z,1017.29
2017-04-22T22:42:42.878Z,1017.32
2017-04-22T22:47:38.545Z,1017.28
2017-04-22T22:52:34.565Z,1017.32
2017-04-22T22:57:30.117Z,1017.27
2017-04-22T23:02:25.905Z,1017.32
2017-04-22T23:07:22.105Z,1017.33
2017-04-22T23:12:18.602Z,1017.29
2017-04-22T23:17:14.462Z,1017.39
2017-04-22T23:22:11.296Z,1017.42
2017-04-22T23:27:07.741Z,1017.42
2017-04-22T23:32:03.300Z,1017.45
2017-04-22T23:37:02.304Z,1017.38
2017-04-22T23:41:57.010Z,1017.39
2017-04-22T23:46:52.581Z,1017.37
2017-04-22T23:51:48.856Z,1017.34
2017-04-22T23:56:44.367Z,1017.28
